Time;durP1;ratioP1;P1;durP2;ratioP2;P2;SDS_P1;SDS_P2;PMS_P1;PMS_P2;Temp;Humidity;BMP_temperature;BMP_pressure;BME280_temperature;BME280_humidity;BME280_pressure;Samples;Min_cycle;Max_cycle;Signal;HPM_P1;HPM_P2
2023/05/23 04:02:39;;;;;;;37.88;28.13;;;19.00;99.90;;;;;;4938716;29;20067;-66
2023/05/23 04:05:05;;;;;;;38.50;28.10;;;18.90;99.90;;;;;;4952907;29;20484;-66
2023/05/23 04:07:33;;;;;;;;;;;18.90;99.90;;;;;;4939640;29;20028;-66
2023/05/23 04:09:59;;;;;;;37.67;28.40;;;18.90;99.90;;;;;;4936702;29;19957;-67
2023/05/23 04:12:25;;;;;;;41.35;27.70;;;19.00;99.90;;;;;;4936244;29;20098;-67
2023/05/23 04:14:51;;;;;;;39.88;29.23;;;18.90;99.90;;;;;;4957768;23;20103;-66
2023/05/23 04:17:17;;;;;;;;;;;18.90;99.90;;;;;;4938246;29;20043;-64
2023/05/23 04:19:43;;;;;;;36.00;28.00;;;19.00;99.90;;;;;;4938851;29;19914;-65
2023/05/23 04:22:08;;;;;;;36.05;27.23;;;19.00;99.90;;;;;;4937540;29;20024;-65
2023/05/23 04:24:34;;;;;;;42.05;28.67;;;19.00;99.90;;;;;;4942296;29;20036;-64
2023/05/23 04:27:00;;;;;;;36.13;27.00;;;19.00;99.90;;;;;;4941582;29;20046;-65
2023/05/23 04:29:26;;;;;;;34.55;27.13;;;19.00;99.90;;;;;;4942256;29;20526;-65
2023/05/23 04:31:53;;;;;;;37.22;29.52;;;19.00;99.90;;;;;;4926741;29;20028;-65
2023/05/23 04:34:21;;;;;;;35.30;27.92;;;18.80;99.90;;;;;;4921454;29;20032;-64
2023/05/23 04:36:48;;;;;;;35.05;26.83;;;18.90;99.90;;;;;;4921906;29;20103;-65
2023/05/23 04:39:14;;;;;;;33.10;26.63;;;18.90;99.90;;;;;;4921503;29;20027;-65
2023/05/23 04:41:40;;;;;;;38.63;28.20;;;18.90;99.90;;;;;;4909308;29;20021;-66
2023/05/23 04:44:08;;;;;;;34.53;28.40;;;19.00;99.90;;;;;;4908969;29;20047;-66
2023/05/23 04:46:35;;;;;;;35.38;27.48;;;19.10;99.90;;;;;;4921968;29;20024;-66
2023/05/23 04:49:01;;;;;;;36.90;28.30;;;19.00;99.90;;;;;;4915924;29;20071;-69
2023/05/23 04:51:27;;;;;;;41.15;29.67;;;18.90;99.90;;;;;;4916144;29;20024;-66
2023/05/23 04:53:52;;;;;;;34.42;27.80;;;18.80;99.90;;;;;;4920226;29;20152;-65
2023/05/23 04:56:19;;;;;;;35.78;26.92;;;18.90;99.90;;;;;;4920411;29;20498;-64
2023/05/23 04:58:45;;;;;;;33.08;25.55;;;18.90;99.90;;;;;;4919776;29;20470;-63
2023/05/23 05:01:12;;;;;;;;;;;18.90;99.90;;;;;;4920957;29;20079;-64
2023/05/23 05:03:38;;;;;;;37.58;25.83;;;18.90;99.90;;;;;;4920126;29;19936;-65
2023/05/23 05:06:04;;;;;;;34.25;26.45;;;18.90;99.90;;;;;;4920061;29;20036;-66
2023/05/23 05:08:30;;;;;;;31.10;26.63;;;18.90;99.90;;;;;;4918707;29;20024;-65
2023/05/23 05:10:56;;;;;;;32.78;25.95;;;18.90;99.90;;;;;;4920104;29;20091;-65
2023/05/23 05:13:21;;;;;;;33.63;24.83;;;18.90;99.90;;;;;;4920166;29;20028;-65
2023/05/23 05:15:47;;;;;;;32.90;23.67;;;19.00;99.90;;;;;;4919309;29;20123;-65
2023/05/23 05:18:12;;;;;;;71.15;32.42;;;18.90;99.90;;;;;;4920221;29;20115;-66
2023/05/23 05:20:38;;;;;;;29.00;22.02;;;18.90;99.90;;;;;;4919992;29;20020;-65
2023/05/23 05:23:04;;;;;;;28.80;22.23;;;18.80;99.90;;;;;;4919600;29;20043;-65
2023/05/23 05:25:34;;;;;;;29.67;22.45;;;18.80;99.90;;;;;;4919597;29;20119;-65
2023/05/23 05:28:10;;;;;;;30.45;23.00;;;18.90;99.90;;;;;;4919538;29;20030;-64
2023/05/23 05:30:36;;;;;;;26.20;21.33;;;18.90;99.90;;;;;;4916166;29;20044;-64
2023/05/23 05:33:03;;;;;;;30.90;22.58;;;18.90;99.90;;;;;;4902153;29;20028;-65
2023/05/23 05:35:33;;;;;;;28.85;21.42;;;19.00;99.90;;;;;;4912634;29;20028;-65
2023/05/23 05:37:59;;;;;;;26.30;20.52;;;19.00;99.90;;;;;;4916009;29;20493;-65
2023/05/23 05:40:25;;;;;;;26.75;20.42;;;19.00;99.90;;;;;;4909060;29;20058;-64
2023/05/23 05:42:51;;;;;;;25.20;19.98;;;19.00;99.90;;;;;;4914334;29;20032;-65
2023/05/23 05:45:16;;;;;;;24.00;19.13;;;19.10;99.90;;;;;;4914744;29;20028;-64
2023/05/23 05:47:43;;;;;;;24.35;19.30;;;19.20;99.90;;;;;;4918647;29;20343;-65
2023/05/23 05:50:09;;;;;;;21.83;18.98;;;19.30;99.90;;;;;;4915726;29;20039;-65
2023/05/23 05:52:38;;;;;;;;;;;19.40;99.90;;;;;;4919181;29;20032;-65
2023/05/23 05:55:11;;;;;;;21.48;16.75;;;19.50;99.90;;;;;;4900228;29;19912;-64
2023/05/23 05:57:38;;;;;;;23.58;17.80;;;19.40;99.90;;;;;;4900236;29;20024;-65
2023/05/23 06:00:12;;;;;;;19.67;17.52;;;19.50;99.90;;;;;;4898605;29;20052;-65
2023/05/23 06:02:50;;;;;;;23.48;16.73;;;19.30;99.90;;;;;;4900678;29;20505;-64
2023/05/23 06:05:16;;;;;;;24.30;17.60;;;19.30;99.90;;;;;;4899828;29;20032;-65
2023/05/23 06:07:42;;;;;;;24.35;17.20;;;19.50;99.90;;;;;;4899946;29;20426;-65
2023/05/23 06:10:12;;;;;;;26.42;16.75;;;19.70;99.90;;;;;;4899106;29;20053;-64
2023/05/23 06:12:38;;;;;;;19.88;16.42;;;19.70;99.90;;;;;;4898436;29;20063;-65
2023/05/23 06:15:05;;;;;;;21.92;16.70;;;19.60;99.90;;;;;;4909785;29;20516;-70
2023/05/23 06:17:31;;;;;;;18.20;15.88;;;19.70;99.90;;;;;;4911894;29;20032;-70
2023/05/23 06:19:56;;;;;;;24.52;16.55;;;19.80;99.90;;;;;;4918737;29;20032;-65
2023/05/23 06:22:22;;;;;;;22.27;16.83;;;20.00;99.90;;;;;;4918744;29;20024;-65
2023/05/23 06:24:47;;;;;;;18.88;14.10;;;20.00;99.90;;;;;;4919103;29;20561;-65
2023/05/23 06:27:13;;;;;;;21.95;14.73;;;20.10;99.90;;;;;;4918862;29;20032;-65
2023/05/23 06:29:38;;;;;;;18.33;15.23;;;20.10;99.90;;;;;;4918526;29;20032;-65
2023/05/23 06:32:05;;;;;;;16.23;14.10;;;20.00;99.90;;;;;;4918644;29;20028;-65
2023/05/23 06:34:30;;;;;;;;;;;20.00;99.90;;;;;;4918786;29;20155;-66
2023/05/23 06:36:56;;;;;;;16.88;13.10;;;19.90;99.90;;;;;;4918462;29;19966;-66
2023/05/23 06:39:21;;;;;;;19.42;12.88;;;20.00;99.90;;;;;;4911995;29;20032;-66
2023/05/23 06:41:47;;;;;;;14.55;12.27;;;20.10;99.90;;;;;;4918134;29;20036;-65
2023/05/23 06:44:13;;;;;;;15.75;12.15;;;20.40;99.90;;;;;;4916699;29;20047;-65
2023/05/23 06:46:39;;;;;;;;;;;20.30;99.90;;;;;;4918997;29;20405;-65
2023/05/23 06:49:04;;;;;;;14.55;11.93;;;20.30;99.90;;;;;;4918169;29;19907;-65
2023/05/23 06:51:30;;;;;;;14.00;12.50;;;20.20;99.90;;;;;;4918450;29;20481;-65
2023/05/23 06:53:56;;;;;;;25.88;19.92;;;20.20;99.90;;;;;;4918315;29;20107;-65
2023/05/23 06:56:22;;;;;;;15.85;12.05;;;20.30;99.90;;;;;;4918106;29;20028;-64
2023/05/23 06:58:47;;;;;;;;;;;20.40;99.90;;;;;;4918978;29;20111;-65
2023/05/23 07:01:13;;;;;;;16.20;11.98;;;20.30;99.90;;;;;;4917551;29;19961;-65
2023/05/23 07:03:40;;;;;;;13.77;11.73;;;20.30;99.90;;;;;;4919057;29;20087;-65
2023/05/23 07:06:06;;;;;;;14.70;11.27;;;20.20;99.90;;;;;;4918013;29;20032;-65
2023/05/23 07:08:32;;;;;;;;;;;20.30;99.90;;;;;;4919225;29;20025;-64
2023/05/23 07:10:57;;;;;;;26.13;11.15;;;20.30;99.90;;;;;;4918092;29;19918;-65
2023/05/23 07:13:23;;;;;;;12.52;10.40;;;20.20;99.90;;;;;;4918311;29;20028;-65
2023/05/23 07:15:49;;;;;;;14.73;11.57;;;20.10;99.90;;;;;;4935738;29;20040;-64
2023/05/23 07:18:14;;;;;;;13.70;11.23;;;20.00;99.90;;;;;;4938273;29;20028;-64
2023/05/23 07:20:40;;;;;;;14.93;12.20;;;20.00;99.90;;;;;;4938316;29;20465;-64
2023/05/23 07:23:05;;;;;;;17.23;13.82;;;19.90;99.90;;;;;;4937690;29;20481;-63
2023/05/23 07:25:31;;;;;;;17.25;13.57;;;20.00;99.90;;;;;;4937112;29;20035;-64
2023/05/23 07:27:56;;;;;;;19.63;13.98;;;20.10;99.90;;;;;;4937537;29;20114;-64
2023/05/23 07:30:22;;;;;;;18.95;13.20;;;20.10;99.90;;;;;;4936665;29;20063;-65
2023/05/23 07:32:48;;;;;;;16.23;13.65;;;20.20;99.90;;;;;;4936762;29;20500;-66
2023/05/23 07:35:14;;;;;;;;;;;20.20;99.90;;;;;;4937716;29;20024;-64
2023/05/23 07:37:39;;;;;;;17.80;13.90;;;20.00;99.90;;;;;;4935185;29;19906;-64
2023/05/23 07:40:07;;;;;;;19.05;14.02;;;19.90;99.90;;;;;;4935214;29;20023;-65
2023/05/23 07:42:33;;;;;;;20.63;13.45;;;19.80;99.90;;;;;;4936517;29;20392;-64
2023/05/23 07:44:59;;;;;;;18.60;13.50;;;19.70;99.90;;;;;;4936197;29;20035;-65
2023/05/23 07:47:24;;;;;;;20.23;14.32;;;19.80;99.90;;;;;;4936535;29;20031;-65
2023/05/23 07:49:51;;;;;;;15.88;13.20;;;19.90;99.90;;;;;;4934983;29;20075;-64
2023/05/23 07:52:16;;;;;;;17.58;13.15;;;20.00;99.90;;;;;;4934897;29;20027;-66
2023/05/23 07:54:42;;;;;;;21.83;14.05;;;20.30;99.90;;;;;;4935979;29;20032;-65
2023/05/23 07:57:08;;;;;;;17.02;13.60;;;20.70;99.90;;;;;;4940869;29;20488;-65
2023/05/23 07:59:34;;;;;;;17.30;13.77;;;21.10;99.90;;;;;;4942197;29;20020;-65
2023/05/23 08:02:00;;;;;;;14.27;12.57;;;21.10;99.90;;;;;;4940250;29;20373;-66
2023/05/23 08:04:26;;;;;;;15.40;12.98;;;21.20;99.90;;;;;;4940509;29;20087;-65
2023/05/23 08:06:52;;;;;;;17.15;13.10;;;21.10;99.90;;;;;;4940208;29;20032;-65
2023/05/23 08:09:18;;;;;;;19.20;13.35;;;20.80;99.90;;;;;;4940165;29;20090;-65
2023/05/23 08:11:43;;;;;;;16.30;12.48;;;20.80;99.90;;;;;;4940273;29;20031;-65
2023/05/23 08:14:09;;;;;;;15.40;12.25;;;20.60;99.90;;;;;;4940043;29;20046;-66
2023/05/23 08:16:35;;;;;;;15.55;12.10;;;20.50;99.90;;;;;;4939503;29;20064;-66
2023/05/23 08:19:00;;;;;;;;;;;20.50;99.90;;;;;;4940298;29;20023;-65
2023/05/23 08:21:26;;;;;;;13.82;11.02;;;20.50;99.90;;;;;;4940081;29;20354;-65
2023/05/23 08:23:51;;;;;;;15.68;11.75;;;20.40;99.90;;;;;;4940058;29;20441;-64
2023/05/23 08:26:17;;;;;;;15.38;11.77;;;20.20;99.90;;;;;;4939649;29;20039;-65
2023/05/23 08:28:42;;;;;;;13.40;11.02;;;20.20;99.90;;;;;;4939657;29;20028;-63
2023/05/23 08:31:08;;;;;;;15.57;12.13;;;20.10;99.90;;;;;;4939176;29;20160;-64
2023/05/23 08:33:33;;;;;;;13.98;11.38;;;20.10;99.90;;;;;;4939353;29;20039;-65
2023/05/23 08:35:59;;;;;;;13.52;10.98;;;20.10;99.90;;;;;;4939840;29;20449;-64
2023/05/23 08:38:26;;;;;;;15.80;10.35;;;20.30;99.90;;;;;;4939678;29;20389;-64
2023/05/23 08:40:51;;;;;;;13.23;10.15;;;20.40;99.90;;;;;;4939738;29;20034;-65
2023/05/23 08:43:18;;;;;;;10.50;8.93;;;20.50;99.90;;;;;;4939741;29;20032;-65
2023/05/23 08:45:45;;;;;;;11.25;8.82;;;20.50;99.90;;;;;;4938831;29;20059;-64
2023/05/23 08:48:13;;;;;;;10.30;8.57;;;20.40;99.90;;;;;;4938078;29;20028;-64
2023/05/23 08:50:41;;;;;;;10.07;7.65;;;20.60;99.90;;;;;;4940066;29;20031;-65
2023/05/23 08:53:09;;;;;;;11.10;8.15;;;21.30;99.90;;;;;;4939860;29;20027;-65
2023/05/23 08:55:36;;;;;;;8.90;7.45;;;21.80;99.90;;;;;;4939297;29;20028;-65
2023/05/23 08:58:02;;;;;;;9.63;6.53;;;22.40;99.70;;;;;;4939141;29;20441;-64
2023/05/23 09:00:28;;;;;;;7.10;6.22;;;22.60;99.10;;;;;;4938758;29;20031;-64
2023/05/23 09:02:54;;;;;;;8.25;6.45;;;22.80;98.50;;;;;;4939806;29;20481;-64
2023/05/23 09:05:20;;;;;;;9.88;6.28;;;22.80;98.10;;;;;;4939809;29;20091;-64
2023/05/23 09:07:47;;;;;;;8.65;5.68;;;22.70;98.10;;;;;;4938626;29;20104;-65
2023/05/23 09:10:19;;;;;;;7.78;6.47;;;22.50;98.50;;;;;;4939574;29;20032;-64
2023/05/23 09:12:44;;;;;;;7.25;6.50;;;22.20;98.60;;;;;;4939710;29;20028;-64
2023/05/23 09:15:10;;;;;;;6.45;5.85;;;21.80;99.40;;;;;;4938606;29;20544;-64
2023/05/23 09:17:36;;;;;;;;;;;22.30;99.30;;;;;;4939465;29;20028;-64
2023/05/23 09:20:13;;;;;;;7.82;5.72;;;23.90;96.80;;;;;;4939256;29;19982;-64
2023/05/23 09:22:40;;;;;;;7.18;6.10;;;24.50;95.50;;;;;;4937415;29;20496;-64
2023/05/23 09:25:05;;;;;;;;;;;25.10;94.40;;;;;;4937728;29;20054;-65
2023/05/23 09:27:31;;;;;;;5.93;5.20;;;25.10;94.20;;;;;;4938561;29;19907;-65
2023/05/23 09:29:56;;;;;;;6.18;5.10;;;25.00;93.70;;;;;;4938360;29;20038;-65
2023/05/23 09:32:22;;;;;;;;;;;24.60;94.10;;;;;;4937452;29;20016;-64
2023/05/23 09:35:04;;;;;;;6.95;4.43;;;23.30;95.40;;;;;;4938298;29;19914;-65
2023/05/23 09:37:39;;;;;;;5.97;5.32;;;22.90;96.20;;;;;;4938530;29;20032;-65
2023/05/23 09:40:11;;;;;;;5.55;4.93;;;22.70;96.10;;;;;;4938484;29;20038;-65
2023/05/23 09:42:44;;;;;;;5.00;4.15;;;22.70;96.50;;;;;;4938077;29;20031;-65
2023/05/23 09:45:11;;;;;;;4.43;3.90;;;22.40;96.80;;;;;;4937723;29;20027;-65
2023/05/23 09:47:36;;;;;;;4.97;3.80;;;22.30;96.60;;;;;;4938014;29;20506;-65
2023/05/23 09:50:02;;;;;;;4.93;3.53;;;22.30;96.70;;;;;;4938246;29;20027;-65
2023/05/23 09:52:38;;;;;;;3.63;3.20;;;22.30;96.60;;;;;;4938226;29;20035;-65
2023/05/23 09:55:05;;;;;;;4.05;3.13;;;22.30;96.10;;;;;;4938406;29;20032;-65
2023/05/23 09:57:36;;;;;;;6.65;3.15;;;23.10;95.60;;;;;;4938220;29;20079;-64
2023/05/23 10:00:05;;;;;;;3.30;3.00;;;23.40;95.00;;;;;;4938167;29;20366;-64
2023/05/23 10:02:57;;;;;;;5.10;3.60;;;23.10;95.40;;;;;;4938097;29;20028;-64
2023/05/23 10:05:54;;;;;;;3.90;3.47;;;23.10;95.50;;;;;;4935615;29;20048;-65
2023/05/23 10:08:32;;;;;;;4.22;3.40;;;23.00;95.50;;;;;;4937975;29;20027;-65
2023/05/23 10:11:13;;;;;;;6.78;3.30;;;22.90;95.60;;;;;;4937727;29;20041;-65
2023/05/23 10:14:01;;;;;;;5.18;3.65;;;23.30;95.40;;;;;;4936644;29;20083;-65
2023/05/23 10:16:46;;;;;;;4.40;3.08;;;24.40;93.60;;;;;;4915156;29;20482;-65
2023/05/23 10:19:52;;;;;;;4.63;3.00;;;26.00;92.30;;;;;;4917805;29;20073;-64
2023/05/23 10:22:19;;;;;;;5.40;3.03;;;28.10;90.00;;;;;;4917447;29;20122;-65
2023/05/23 10:24:46;;;;;;;4.78;2.67;;;28.90;85.60;;;;;;4918571;29;20028;-66
2023/05/23 10:27:12;;;;;;;3.40;2.70;;;28.20;85.60;;;;;;4918293;29;20024;-65
2023/05/23 10:29:38;;;;;;;3.45;2.67;;;27.60;85.90;;;;;;4918456;29;20059;-65
2023/05/23 10:32:05;;;;;;;2.90;2.53;;;26.80;86.20;;;;;;4918232;29;20107;-65
2023/05/23 10:35:04;;;;;;;4.25;3.03;;;26.40;87.70;;;;;;4916912;29;20028;-65
2023/05/23 10:38:00;;;;;;;3.40;3.10;;;26.10;88.10;;;;;;4918092;29;20518;-64
2023/05/23 10:40:25;;;;;;;3.78;3.35;;;25.50;88.30;;;;;;4918451;29;20039;-65
2023/05/23 10:42:57;;;;;;;;;;;24.80;89.90;;;;;;4918429;29;20378;-65
2023/05/23 10:45:23;;;;;;;4.18;2.90;;;24.20;90.70;;;;;;4932208;29;20324;-65
2023/05/23 10:47:52;;;;;;;5.03;3.20;;;23.80;91.10;;;;;;4937033;29;20023;-65
2023/05/23 10:50:35;;;;;;;3.55;2.85;;;23.40;91.50;;;;;;4937105;29;20601;-67
2023/05/23 10:53:03;;;;;;;3.58;2.97;;;22.90;92.30;;;;;;4937163;29;20027;-67
2023/05/23 10:55:35;;;;;;;3.53;2.88;;;22.80;92.70;;;;;;4936898;29;20023;-66
2023/05/23 10:58:21;;;;;;;3.13;2.78;;;23.00;92.90;;;;;;4936809;29;20107;-66
2023/05/23 11:00:55;;;;;;;4.00;2.70;;;23.40;92.40;;;;;;4936875;29;20035;-65
2023/05/23 11:03:46;;;;;;;4.97;3.08;;;23.50;92.00;;;;;;4936977;29;20263;-65
2023/05/23 11:06:43;;;;;;;3.30;3.00;;;23.60;92.10;;;;;;4934733;29;20111;-65
2023/05/23 11:09:18;;;;;;;5.27;3.30;;;23.50;91.60;;;;;;4936699;29;20095;-65
2023/05/23 11:11:54;;;;;;;4.22;2.88;;;23.30;92.30;;;;;;4936941;29;20102;-65
2023/05/23 11:14:30;;;;;;;6.28;5.10;;;23.10;92.60;;;;;;4936521;29;20035;-65
2023/05/23 11:16:55;;;;;;;4.50;3.30;;;23.00;93.10;;;;;;4935280;29;20114;-65
2023/05/23 11:19:24;;;;;;;;;;;23.00;93.00;;;;;;4936953;29;20477;-65
2023/05/23 11:22:02;;;;;;;4.65;3.20;;;23.00;92.90;;;;;;4936682;29;19907;-65
2023/05/23 11:24:52;;;;;;;3.35;3.00;;;22.40;93.40;;;;;;4936610;29;20385;-65
2023/05/23 11:27:25;;;;;;;3.28;2.95;;;22.40;93.90;;;;;;4933480;29;20122;-65
2023/05/23 11:30:03;;;;;;;2.97;2.67;;;22.40;94.00;;;;;;4936109;29;20038;-65
2023/05/23 11:32:30;;;;;;;3.10;2.80;;;22.30;94.20;;;;;;4936319;29;20086;-65
2023/05/23 11:34:59;;;;;;;3.28;2.78;;;22.50;94.30;;;;;;4936193;29;20027;-65
2023/05/23 11:37:24;;;;;;;5.28;2.90;;;22.70;93.80;;;;;;4937101;29;20020;-65
2023/05/23 11:39:50;;;;;;;3.95;3.05;;;22.80;93.50;;;;;;4935354;29;20107;-65
2023/05/23 11:42:15;;;;;;;;;;;23.00;93.20;;;;;;4937250;29;20107;-65
2023/05/23 11:44:41;;;;;;;3.47;3.17;;;23.20;93.20;;;;;;4936827;29;19907;-65
2023/05/23 11:47:07;;;;;;;4.50;3.00;;;22.90;93.20;;;;;;4936912;29;20028;-65
2023/05/23 11:49:37;;;;;;;3.45;3.08;;;23.00;93.50;;;;;;4935338;29;20068;-64
2023/05/23 11:52:05;;;;;;;3.60;2.83;;;23.00;93.50;;;;;;4936901;29;20392;-64
2023/05/23 11:54:31;;;;;;;5.22;3.55;;;23.20;93.40;;;;;;4936467;29;20098;-64
2023/05/23 11:56:56;;;;;;;7.82;3.30;;;23.10;93.60;;;;;;4936891;29;20028;-65
2023/05/23 11:59:24;;;;;;;4.18;3.10;;;22.70;94.10;;;;;;4937145;29;20035;-65
2023/05/23 12:01:50;;;;;;;3.45;2.92;;;22.50;94.30;;;;;;4919162;29;20182;-65
2023/05/23 12:04:16;;;;;;;5.43;2.70;;;22.00;94.90;;;;;;4899493;29;20162;-66
2023/05/23 12:06:45;;;;;;;4.20;2.55;;;21.70;95.40;;;;;;4899588;29;20052;-66
2023/05/23 12:09:11;;;;;;;3.30;2.40;;;21.40;95.80;;;;;;4898771;29;20028;-66
2023/05/23 12:11:39;;;;;;;3.47;2.60;;;21.30;95.70;;;;;;4898538;29;20028;-66
2023/05/23 12:14:05;;;;;;;2.95;2.67;;;21.20;95.80;;;;;;4905869;29;20036;-67
2023/05/23 12:16:35;;;;;;;3.47;2.78;;;21.20;95.80;;;;;;4915930;29;20038;-66
2023/05/23 12:19:02;;;;;;;5.60;3.05;;;21.10;96.10;;;;;;4918194;29;20028;-66
2023/05/23 12:21:44;;;;;;;4.50;2.88;;;21.10;96.30;;;;;;4917145;29;20033;-66
2023/05/23 12:24:14;;;;;;;5.05;3.10;;;21.00;96.40;;;;;;4915633;29;20392;-66
2023/05/23 12:26:57;;;;;;;3.72;2.92;;;21.10;96.40;;;;;;4917266;29;20032;-66
2023/05/23 12:29:31;;;;;;;4.45;3.28;;;21.10;96.40;;;;;;4917103;29;20036;-65
2023/05/23 12:32:00;;;;;;;3.55;3.15;;;21.40;96.30;;;;;;4917073;29;20393;-66
2023/05/23 12:34:26;;;;;;;4.28;3.05;;;21.40;96.30;;;;;;4916748;29;20032;-65
2023/05/23 12:36:56;;;;;;;8.15;3.45;;;21.60;96.20;;;;;;4904252;29;20028;-66
2023/05/23 12:39:26;;;;;;;3.70;2.83;;;21.70;95.80;;;;;;4903345;29;20036;-65
2023/05/23 12:41:55;;;;;;;4.32;3.10;;;21.90;95.60;;;;;;4906139;29;20575;-66
2023/05/23 12:44:20;;;;;;;4.55;3.30;;;22.00;95.70;;;;;;4923000;29;20510;-67
2023/05/23 12:46:46;;;;;;;3.50;3.20;;;22.10;95.70;;;;;;4918788;29;20167;-66
2023/05/23 12:49:12;;;;;;;3.15;2.85;;;22.00;95.50;;;;;;4910118;29;20541;-66
2023/05/23 12:51:38;;;;;;;4.55;2.78;;;22.10;95.40;;;;;;4904475;29;20055;-67
2023/05/23 12:54:04;;;;;;;3.40;3.10;;;22.10;95.10;;;;;;4906201;29;20035;-66
2023/05/23 12:56:30;;;;;;;3.90;2.75;;;22.20;95.10;;;;;;4907086;29;20494;-67
2023/05/23 12:58:56;;;;;;;;;;;22.20;95.00;;;;;;4901490;29;20029;-67
2023/05/23 13:01:21;;;;;;;4.78;3.90;;;22.30;95.00;;;;;;4910054;29;19911;-66
2023/05/23 13:03:47;;;;;;;4.35;3.38;;;22.60;94.80;;;;;;4920347;29;20040;-68
2023/05/23 13:06:13;;;;;;;7.03;3.40;;;22.70;94.30;;;;;;4920549;29;20104;-68
2023/05/23 13:08:38;;;;;;;4.68;3.58;;;22.70;94.50;;;;;;4920772;29;20492;-67
2023/05/23 13:11:04;;;;;;;4.43;2.90;;;22.70;94.50;;;;;;4920500;29;20485;-68
2023/05/23 13:13:31;;;;;;;5.75;3.25;;;22.90;94.10;;;;;;4919225;29;20099;-67
2023/05/23 13:15:57;;;;;;;4.45;2.92;;;23.00;94.20;;;;;;4939430;29;20032;-66
2023/05/23 13:18:22;;;;;;;4.25;3.58;;;23.20;94.10;;;;;;4925198;29;20434;-67
2023/05/23 13:20:48;;;;;;;;;;;23.40;93.50;;;;;;4917192;29;20041;-68
2023/05/23 13:23:13;;;;;;;4.43;3.25;;;23.60;93.10;;;;;;4909694;29;19911;-68
2023/05/23 13:25:39;;;;;;;;;;;23.70;92.90;;;;;;4910060;29;20084;-67
2023/05/23 13:28:05;;;;;;;4.65;3.42;;;23.70;92.60;;;;;;4901399;29;19914;-67
2023/05/23 13:30:30;;;;;;;;;;;23.50;92.70;;;;;;4901445;29;20481;-67
2023/05/23 13:32:56;;;;;;;3.47;3.13;;;23.30;92.50;;;;;;4901206;29;19907;-67
2023/05/23 13:35:22;;;;;;;;;;;22.90;92.50;;;;;;4899946;29;20028;-67
2023/05/23 13:37:47;;;;;;;4.15;3.03;;;22.50;92.90;;;;;;4900916;29;20389;-66
2023/05/23 13:40:17;;;;;;;3.42;3.08;;;22.30;92.90;;;;;;4900719;29;20455;-66
2023/05/23 13:42:43;;;;;;;3.72;3.03;;;22.50;92.80;;;;;;4900543;29;20426;-67
2023/05/23 13:45:09;;;;;;;4.05;2.97;;;22.90;92.50;;;;;;4925562;29;20044;-68
2023/05/23 13:47:35;;;;;;;4.25;3.13;;;22.70;92.20;;;;;;4918943;29;20087;-67
2023/05/23 13:50:02;;;;;;;4.95;3.20;;;22.80;92.20;;;;;;4917372;29;20036;-66
2023/05/23 13:52:28;;;;;;;5.78;3.60;;;23.00;92.00;;;;;;4911511;29;20052;-65
2023/05/23 13:54:53;;;;;;;4.18;3.45;;;23.10;92.00;;;;;;4907392;29;20103;-65
2023/05/23 13:57:19;;;;;;;4.93;3.88;;;23.10;92.40;;;;;;4907852;29;20060;-65
2023/05/23 13:59:44;;;;;;;;;;;22.90;92.50;;;;;;4910538;29;20032;-66
2023/05/23 14:02:10;;;;;;;5.72;3.92;;;22.80;93.20;;;;;;4901397;29;20377;-66
2023/05/23 14:04:36;;;;;;;;;;;22.70;93.30;;;;;;4903652;29;20039;-65
2023/05/23 14:07:02;;;;;;;6.15;4.40;;;22.60;93.30;;;;;;4909488;29;20332;-67
2023/05/23 14:09:28;;;;;;;7.30;4.95;;;22.50;93.60;;;;;;4918817;29;20024;-67
2023/05/23 14:11:54;;;;;;;6.13;4.50;;;22.40;93.60;;;;;;4918671;29;20043;-66
2023/05/23 14:14:19;;;;;;;6.70;4.47;;;22.40;93.70;;;;;;4918867;29;20536;-68
2023/05/23 14:16:45;;;;;;;5.45;4.85;;;22.30;93.60;;;;;;4918897;29;20039;-68
2023/05/23 14:19:10;;;;;;;5.18;4.15;;;22.40;93.70;;;;;;4919182;29;20446;-69
2023/05/23 14:21:36;;;;;;;4.95;4.45;;;22.40;93.40;;;;;;4918623;29;20493;-67
2023/05/23 14:24:02;;;;;;;5.97;4.45;;;22.40;93.50;;;;;;4918738;29;20035;-67
2023/05/23 14:26:27;;;;;;;4.13;3.65;;;22.30;93.50;;;;;;4918580;29;20024;-66
2023/05/23 14:28:53;;;;;;;;;;;22.40;93.50;;;;;;4916975;29;20036;-66
2023/05/23 14:31:20;;;;;;;6.68;4.57;;;22.60;93.30;;;;;;4918247;29;20304;-65
2023/05/23 14:33:46;;;;;;;6.53;4.95;;;22.60;93.30;;;;;;4918189;29;20032;-66
2023/05/23 14:36:12;;;;;;;5.90;4.63;;;22.60;93.20;;;;;;4919101;29;20028;-68
2023/05/23 14:38:38;;;;;;;;;;;22.40;93.30;;;;;;4917213;29;20501;-66
2023/05/23 14:41:04;;;;;;;6.40;4.70;;;22.20;93.70;;;;;;4918274;29;19911;-68
2023/05/23 14:43:30;;;;;;;6.72;4.93;;;22.00;94.40;;;;;;4916798;29;20028;-70
2023/05/23 14:45:55;;;;;;;5.28;4.78;;;22.00;94.70;;;;;;4936815;29;20111;-65
2023/05/23 14:48:21;;;;;;;6.68;5.18;;;22.00;94.80;;;;;;4929754;29;20031;-66
2023/05/23 14:50:46;;;;;;;16.77;11.23;;;21.90;95.00;;;;;;4899727;29;20147;-68
2023/05/23 14:53:12;;;;;;;8.07;5.30;;;21.90;95.90;;;;;;4899660;29;20386;-67
2023/05/23 14:55:38;;;;;;;6.00;5.13;;;21.80;95.30;;;;;;4899273;29;20390;-67
2023/05/23 14:58:05;;;;;;;5.47;4.88;;;21.90;95.40;;;;;;4899370;29;20029;-66
2023/05/23 15:00:31;;;;;;;7.63;6.60;;;21.90;94.90;;;;;;4900880;29;20044;-66
2023/05/23 15:02:57;;;;;;;8.45;7.03;;;21.90;94.70;;;;;;4902118;29;20475;-68
2023/05/23 15:05:23;;;;;;;6.63;5.60;;;21.90;94.90;;;;;;4922888;29;20036;-66
2023/05/23 15:07:49;;;;;;;22.15;16.88;;;22.00;94.60;;;;;;4924410;29;20074;-65
2023/05/23 15:10:16;;;;;;;11.38;7.90;;;22.10;95.70;;;;;;4922442;29;20493;-66
2023/05/23 15:12:41;;;;;;;8.85;6.40;;;22.10;94.70;;;;;;4926632;29;20083;-67
2023/05/23 15:15:07;;;;;;;7.22;6.03;;;22.20;94.60;;;;;;4935491;29;20070;-68
2023/05/23 15:17:33;;;;;;;6.53;5.78;;;22.30;94.40;;;;;;4942635;29;20040;-68
2023/05/23 15:19:58;;;;;;;;;;;22.40;94.40;;;;;;4941706;29;20493;-68
2023/05/23 15:22:24;;;;;;;7.18;5.75;;;22.50;94.80;;;;;;4939701;29;19906;-66
2023/05/23 15:24:50;;;;;;;7.32;5.90;;;22.10;94.70;;;;;;4926416;29;20032;-64
2023/05/23 15:27:16;;;;;;;7.43;5.55;;;21.90;95.10;;;;;;4913513;29;20033;-65
2023/05/23 15:29:41;;;;;;;7.20;5.45;;;21.80;95.30;;;;;;4898887;29;20028;-65
2023/05/23 15:32:07;;;;;;;6.95;5.57;;;21.80;95.30;;;;;;4898705;29;20040;-65
2023/05/23 15:34:33;;;;;;;6.82;5.20;;;21.70;95.00;;;;;;4899245;29;20031;-67
2023/05/23 15:36:58;;;;;;;7.93;5.20;;;21.70;95.30;;;;;;4916275;29;20124;-66
2023/05/23 15:39:27;;;;;;;8.07;5.78;;;21.90;95.40;;;;;;4917820;29;20084;-65
2023/05/23 15:41:53;;;;;;;8.02;5.78;;;21.80;95.10;;;;;;4917761;29;20385;-66
2023/05/23 15:44:22;;;;;;;7.57;5.95;;;21.70;95.30;;;;;;4925443;29;20032;-65
2023/05/23 15:46:50;;;;;;;7.90;6.05;;;21.70;95.60;;;;;;4937020;29;20050;-65
2023/05/23 15:49:17;;;;;;;9.27;6.30;;;21.70;95.50;;;;;;4935682;29;20034;-67
2023/05/23 15:51:43;;;;;;;8.63;6.38;;;21.70;95.50;;;;;;4936552;29;20521;-66
2023/05/23 15:54:10;;;;;;;6.40;5.80;;;21.70;95.40;;;;;;4935042;29;20055;-66
2023/05/23 15:56:35;;;;;;;7.75;6.20;;;21.70;96.00;;;;;;4934947;29;20034;-66
2023/05/23 15:59:01;;;;;;;8.88;6.63;;;21.70;95.90;;;;;;4925840;29;20020;-66
2023/05/23 16:01:27;;;;;;;10.05;6.53;;;21.50;96.10;;;;;;4916898;29;20040;-66
2023/05/23 16:03:52;;;;;;;6.28;5.60;;;21.40;96.20;;;;;;4916972;29;20079;-62
2023/05/23 16:06:18;;;;;;;7.13;5.45;;;21.40;96.20;;;;;;4917776;29;20461;-67
2023/05/23 16:08:43;;;;;;;8.30;6.00;;;21.20;95.70;;;;;;4917304;29;20024;-66
2023/05/23 16:11:09;;;;;;;9.30;5.95;;;21.10;96.00;;;;;;4916051;29;20522;-67
2023/05/23 16:13:35;;;;;;;7.03;5.60;;;21.10;96.00;;;;;;4917281;29;20036;-65
2023/05/23 16:16:02;;;;;;;7.07;5.00;;;21.20;95.30;;;;;;4917156;29;20096;-65
2023/05/23 16:18:28;;;;;;;6.95;4.72;;;21.00;94.70;;;;;;4919110;29;20058;-66
2023/05/23 16:20:53;;;;;;;8.50;6.05;;;21.10;94.90;;;;;;4921188;29;20028;-66
2023/05/23 16:23:19;;;;;;;8.75;6.15;;;20.90;95.20;;;;;;4955478;23;20050;-66
2023/05/23 16:25:44;;;;;;;8.02;6.10;;;21.00;95.60;;;;;;4982157;28;20022;-66
2023/05/23 16:28:10;;;;;;;9.52;6.20;;;20.90;95.60;;;;;;4982806;28;20031;-65
2023/05/23 16:30:36;;;;;;;7.93;6.50;;;20.80;95.80;;;;;;4996172;28;20067;-67
2023/05/23 16:33:01;;;;;;;8.43;6.60;;;20.70;96.10;;;;;;4994262;28;20031;-66
2023/05/23 16:35:27;;;;;;;10.40;6.93;;;20.80;96.30;;;;;;4989560;28;20023;-66
2023/05/23 16:37:52;;;;;;;9.27;7.32;;;20.80;96.40;;;;;;4990225;28;20057;-66
2023/05/23 16:40:18;;;;;;;10.52;7.65;;;20.80;96.70;;;;;;4989351;28;20083;-67
2023/05/23 16:42:43;;;;;;;9.85;7.70;;;20.70;96.70;;;;;;4989876;28;20031;-67
2023/05/23 16:45:09;;;;;;;9.52;7.38;;;20.70;96.90;;;;;;4988064;28;20026;-67
2023/05/23 16:47:35;;;;;;;10.45;6.80;;;20.70;96.80;;;;;;4987065;28;20031;-67
2023/05/23 16:50:01;;;;;;;12.18;6.75;;;20.50;96.80;;;;;;4985622;28;20026;-68